sensor_id;sensor_type;location;lat;lon;timestamp;pressure;altitude;pressure_sealevel;temperature
74043;BMP280;62384;53.600;10.040;2023-08-30T00:00:59;4031.50;;;15.38
74043;BMP280;62384;53.600;10.040;2023-08-30T00:03:25;5035.53;;;15.35
74043;BMP280;62384;53.600;10.040;2023-08-30T00:05:50;6709.50;;;15.31
74043;BMP280;62384;53.600;10.040;2023-08-30T00:08:22;6039.84;;;15.30
74043;BMP280;62384;53.600;10.040;2023-08-30T00:10:47;4701.19;;;15.25
74043;BMP280;62384;53.600;10.040;2023-08-30T00:13:12;3028.47;;;15.29
74043;BMP280;62384;53.600;10.040;2023-08-30T00:15:37;3364.00;;;15.09
74043;BMP280;62384;53.600;10.040;2023-08-30T00:18:03;2026.19;;;15.19
74043;BMP280;62384;53.600;10.040;2023-08-30T00:20:29;1359.47;;;14.99
74043;BMP280;62384;53.600;10.040;2023-08-30T00:22:54;-310.00;;;14.97
74043;BMP280;62384;53.600;10.040;2023-08-30T00:25:20;-310.78;;;15.04
74043;BMP280;62384;53.600;10.040;2023-08-30T00:27:45;1024.03;;;15.15
74043;BMP280;62384;53.600;10.040;2023-08-30T00:30:11;1024.34;;;15.11
74043;BMP280;62384;53.600;10.040;2023-08-30T00:32:36;2027.47;;;15.02
74043;BMP280;62384;53.600;10.040;2023-08-30T00:35:02;1693.44;;;15.01
74043;BMP280;62384;53.600;10.040;2023-08-30T00:37:35;1359.06;;;15.04
74043;BMP280;62384;53.600;10.040;2023-08-30T00:40:01;1025.31;;;15.01
74043;BMP280;62384;53.600;10.040;2023-08-30T00:42:26;691.38;;;15.00
74043;BMP280;62384;53.600;10.040;2023-08-30T00:44:52;690.91;;;15.05
74043;BMP280;62384;53.600;10.040;2023-08-30T00:47:17;1359.66;;;14.97
74043;BMP280;62384;53.600;10.040;2023-08-30T00:49:43;358.41;;;14.91
74043;BMP280;62384;53.600;10.040;2023-08-30T00:52:10;-643.09;;;14.91
74043;BMP280;62384;53.600;10.040;2023-08-30T00:54:36;359.47;;;14.80
74043;BMP280;62384;53.600;10.040;2023-08-30T00:57:01;25.56;;;14.81
74043;BMP280;62384;53.600;10.040;2023-08-30T00:59:27;-1310.00;;;14.87
74043;BMP280;62384;53.600;10.040;2023-08-30T01:01:54;359.88;;;14.76
74043;BMP280;62384;53.600;10.040;2023-08-30T01:04:20;26.44;;;14.73
74043;BMP280;62384;53.600;10.040;2023-08-30T01:06:45;360.16;;;14.74
74043;BMP280;62384;53.600;10.040;2023-08-30T01:09:10;-641.19;;;14.75
74043;BMP280;62384;53.600;10.040;2023-08-30T01:11:41;-640.59;;;14.70
74043;BMP280;62384;53.600;10.040;2023-08-30T01:14:12;-1307.28;;;14.66
74043;BMP280;62384;53.600;10.040;2023-08-30T01:16:39;-974.34;;;14.71
74043;BMP280;62384;53.600;10.040;2023-08-30T01:19:19;-308.13;;;14.81
74043;BMP280;62384;53.600;10.040;2023-08-30T01:21:58;25.25;;;14.84
74043;BMP280;62384;53.600;10.040;2023-08-30T01:24:31;358.66;;;14.88
74043;BMP280;62384;53.600;10.040;2023-08-30T01:27:07;358.63;;;14.89
74043;BMP280;62384;53.600;10.040;2023-08-30T01:29:33;1360.34;;;14.89
74043;BMP280;62384;53.600;10.040;2023-08-30T01:32:01;1025.78;;;14.96
74043;BMP280;62384;53.600;10.040;2023-08-30T01:34:28;25.03;;;14.86
74043;BMP280;62384;53.600;10.040;2023-08-30T01:36:53;359.63;;;14.79
74043;BMP280;62384;53.600;10.040;2023-08-30T01:39:19;-640.50;;;14.69
74043;BMP280;62384;53.600;10.040;2023-08-30T01:41:46;-1307.63;;;14.69
74043;BMP280;62384;53.600;10.040;2023-08-30T01:44:21;26.53;;;14.72
74043;BMP280;62384;53.600;10.040;2023-08-30T01:46:47;-1308.84;;;14.78
74043;BMP280;62384;53.600;10.040;2023-08-30T01:49:14;-974.28;;;14.71
74043;BMP280;62384;53.600;10.040;2023-08-30T01:51:40;-973.00;;;14.60
74043;BMP280;62384;53.600;10.040;2023-08-30T01:54:06;-1973.78;;;14.63
74043;BMP280;62384;53.600;10.040;2023-08-30T01:56:33;-1306.97;;;14.64
74043;BMP280;62384;53.600;10.040;2023-08-30T01:58:58;-1307.16;;;14.65
74043;BMP280;62384;53.600;10.040;2023-08-30T02:01:24;-1306.44;;;14.60
74043;BMP280;62384;53.600;10.040;2023-08-30T02:03:49;-2302.41;;;14.29
74043;BMP280;62384;53.600;10.040;2023-08-30T02:06:19;-3636.78;;;14.40
74043;BMP280;62384;53.600;10.040;2023-08-30T02:11:21;-2303.88;;;14.39
74043;BMP280;62384;53.600;10.040;2023-08-30T02:13:47;-2305.09;;;14.48
74043;BMP280;62384;53.600;10.040;2023-08-30T02:16:14;-2638.47;;;14.48
74043;BMP280;62384;53.600;10.040;2023-08-30T02:18:41;-2302.25;;;14.28
74043;BMP280;62384;53.600;10.040;2023-08-30T02:21:06;-2306.25;;;14.56
74043;BMP280;62384;53.600;10.040;2023-08-30T02:23:39;-2306.13;;;14.55
74043;BMP280;62384;53.600;10.040;2023-08-30T02:26:04;-2303.72;;;14.38
74043;BMP280;62384;53.600;10.040;2023-08-30T02:28:30;-2306.19;;;14.56
74043;BMP280;62384;53.600;10.040;2023-08-30T02:31:00;-2304.66;;;14.45
74043;BMP280;62384;53.600;10.040;2023-08-30T02:33:26;-2639.75;;;14.57
74043;BMP280;62384;53.600;10.040;2023-08-30T02:35:51;-1972.81;;;14.56
74043;BMP280;62384;53.600;10.040;2023-08-30T02:38:18;-1639.53;;;14.57
74043;BMP280;62384;53.600;10.040;2023-08-30T02:40:44;-1640.59;;;14.65
74043;BMP280;62384;53.600;10.040;2023-08-30T02:43:09;-973.72;;;14.66
74043;BMP280;62384;53.600;10.040;2023-08-30T02:45:35;-640.59;;;14.70
74043;BMP280;62384;53.600;10.040;2023-08-30T02:48:01;-640.00;;;14.65
74043;BMP280;62384;53.600;10.040;2023-08-30T02:50:29;-640.59;;;14.70
74043;BMP280;62384;53.600;10.040;2023-08-30T02:52:54;27.03;;;14.68
74043;BMP280;62384;53.600;10.040;2023-08-30T02:55:19;-306.28;;;14.64
74043;BMP280;62384;53.600;10.040;2023-08-30T02:57:45;-641.25;;;14.76
74043;BMP280;62384;53.600;10.040;2023-08-30T03:00:12;-974.97;;;14.76
74043;BMP280;62384;53.600;10.040;2023-08-30T03:02:37;-1306.78;;;14.62
74043;BMP280;62384;53.600;10.040;2023-08-30T03:05:02;-2306.63;;;14.59
74043;BMP280;62384;53.600;10.040;2023-08-30T03:07:30;-1641.94;;;14.75
74043;BMP280;62384;53.600;10.040;2023-08-30T03:09:56;-308.03;;;14.80
74043;BMP280;62384;53.600;10.040;2023-08-30T03:12:21;-308.53;;;14.84
74043;BMP280;62384;53.600;10.040;2023-08-30T03:14:47;-307.91;;;14.79
74043;BMP280;62384;53.600;10.040;2023-08-30T03:17:12;692.84;;;14.85
74043;BMP280;62384;53.600;10.040;2023-08-30T03:19:37;25.41;;;14.83
74043;BMP280;62384;53.600;10.040;2023-08-30T03:22:03;-975.34;;;14.79
74043;BMP280;62384;53.600;10.040;2023-08-30T03:24:28;-642.56;;;14.87
74043;BMP280;62384;53.600;10.040;2023-08-30T03:26:53;359.69;;;14.78
74043;BMP280;62384;53.600;10.040;2023-08-30T03:29:20;-975.84;;;14.83
74043;BMP280;62384;53.600;10.040;2023-08-30T03:31:45;-641.31;;;14.76
74043;BMP280;62384;53.600;10.040;2023-08-30T03:34:11;-1975.97;;;14.78
74043;BMP280;62384;53.600;10.040;2023-08-30T03:36:37;-1308.72;;;14.77
74043;BMP280;62384;53.600;10.040;2023-08-30T03:39:11;-308.13;;;14.81
74043;BMP280;62384;53.600;10.040;2023-08-30T03:41:37;-309.66;;;14.94
74043;BMP280;62384;53.600;10.040;2023-08-30T03:44:09;1693.78;;;14.96
74043;BMP280;62384;53.600;10.040;2023-08-30T03:46:40;357.94;;;14.95
74043;BMP280;62384;53.600;10.040;2023-08-30T03:49:10;-308.97;;;14.88
74043;BMP280;62384;53.600;10.040;2023-08-30T03:51:40;-1977.16;;;14.87
74043;BMP280;62384;53.600;10.040;2023-08-30T03:54:06;-2311.50;;;14.92
74043;BMP280;62384;53.600;10.040;2023-08-30T03:56:31;-1976.53;;;14.82
74043;BMP280;62384;53.600;10.040;2023-08-30T03:59:09;-1309.75;;;14.85
74043;BMP280;62384;53.600;10.040;2023-08-30T04:01:34;-1310.53;;;14.91
74043;BMP280;62384;53.600;10.040;2023-08-30T04:03:59;-977.16;;;14.94
74043;BMP280;62384;53.600;10.040;2023-08-30T04:06:24;24.38;;;14.92
74043;BMP280;62384;53.600;10.040;2023-08-30T04:09:01;-977.22;;;14.94
74043;BMP280;62384;53.600;10.040;2023-08-30T04:11:26;-976.28;;;14.87
74043;BMP280;62384;53.600;10.040;2023-08-30T04:13:52;24.13;;;14.95
74043;BMP280;62384;53.600;10.040;2023-08-30T04:16:18;-309.44;;;14.92
74043;BMP280;62384;53.600;10.040;2023-08-30T04:18:50;-977.16;;;14.94
74043;BMP280;62384;53.600;10.040;2023-08-30T04:21:21;24.28;;;14.93
74043;BMP280;62384;53.600;10.040;2023-08-30T04:23:46;691.09;;;15.03
74043;BMP280;62384;53.600;10.040;2023-08-30T04:26:11;691.97;;;14.94
74043;BMP280;62384;53.600;10.040;2023-08-30T04:28:37;-309.56;;;14.93
74043;BMP280;62384;53.600;10.040;2023-08-30T04:31:02;-643.34;;;14.93
74043;BMP280;62384;53.600;10.040;2023-08-30T04:33:27;1025.69;;;14.97
74043;BMP280;62384;53.600;10.040;2023-08-30T04:35:53;24.13;;;14.95
74043;BMP280;62384;53.600;10.040;2023-08-30T04:38:20;1694.31;;;14.90
74043;BMP280;62384;53.600;10.040;2023-08-30T04:40:45;1025.22;;;15.02
74043;BMP280;62384;53.600;10.040;2023-08-30T04:43:11;1693.38;;;15.01
74043;BMP280;62384;53.600;10.040;2023-08-30T04:45:37;3364.13;;;15.06
74043;BMP280;62384;53.600;10.040;2023-08-30T04:48:02;3363.94;;;15.10
74043;BMP280;62384;53.600;10.040;2023-08-30T04:50:28;4367.34;;;15.05
74043;BMP280;62384;53.600;10.040;2023-08-30T04:52:53;5036.16;;;15.11
74043;BMP280;62384;53.600;10.040;2023-08-30T04:55:20;4701.94;;;15.01
74043;BMP280;62384;53.600;10.040;2023-08-30T04:57:50;5370.97;;;15.01
74043;BMP280;62384;53.600;10.040;2023-08-30T05:00:16;6040.03;;;15.10
74043;BMP280;62384;53.600;10.040;2023-08-30T05:02:51;7044.25;;;15.09
74043;BMP280;62384;53.600;10.040;2023-08-30T05:05:16;6374.75;;;15.06
74043;BMP280;62384;53.600;10.040;2023-08-30T05:07:42;6709.47;;;15.10
74043;BMP280;62384;53.600;10.040;2023-08-30T05:10:07;7379.13;;;15.13
74043;BMP280;62384;53.600;10.040;2023-08-30T05:12:34;8048.97;;;15.14
74043;BMP280;62384;53.600;10.040;2023-08-30T05:15:00;6709.47;;;15.09
74043;BMP280;62384;53.600;10.040;2023-08-30T05:17:25;6709.50;;;15.17
74043;BMP280;62384;53.600;10.040;2023-08-30T05:19:51;8719.13;;;15.20
74043;BMP280;62384;53.600;10.040;2023-08-30T05:22:17;8049.06;;;15.19
74043;BMP280;62384;53.600;10.040;2023-08-30T05:24:42;8719.25;;;15.23
74043;BMP280;62384;53.600;10.040;2023-08-30T05:27:08;9724.91;;;15.28
74043;BMP280;62384;53.600;10.040;2023-08-30T05:29:33;9054.19;;;15.19
74043;BMP280;62384;53.600;10.040;2023-08-30T05:31:59;11738.16;;;15.42
74043;BMP280;62384;53.600;10.040;2023-08-30T05:34:25;10061.00;;;15.44
74043;BMP280;62384;53.600;10.040;2023-08-30T05:36:52;13751.16;;;15.32
74043;BMP280;62384;53.600;10.040;2023-08-30T05:39:18;14423.47;;;15.39
74043;BMP280;62384;53.600;10.040;2023-08-30T05:41:43;14759.44;;;15.39
74043;BMP280;62384;53.600;10.040;2023-08-30T05:44:08;14759.38;;;15.39
74043;BMP280;62384;53.600;10.040;2023-08-30T05:46:34;14087.50;;;15.38
74043;BMP280;62384;53.600;10.040;2023-08-30T05:48:59;15096.09;;;15.45
74043;BMP280;62384;53.600;10.040;2023-08-30T05:51:27;15432.09;;;15.45
74043;BMP280;62384;53.600;10.040;2023-08-30T05:54:01;16777.50;;;15.51
74043;BMP280;62384;53.600;10.040;2023-08-30T05:56:34;17113.91;;;15.52
74043;BMP280;62384;53.600;10.040;2023-08-30T05:59:00;14760.00;;;15.44
74043;BMP280;62384;53.600;10.040;2023-08-30T06:01:26;15096.78;;;15.50
74043;BMP280;62384;53.600;10.040;2023-08-30T06:03:51;14427.09;;;15.68
74043;BMP280;62384;53.600;10.040;2023-08-30T06:06:21;20820.72;;;15.75
74043;BMP280;62384;53.600;10.040;2023-08-30T06:08:46;20822.09;;;15.81
74043;BMP280;62384;53.600;10.040;2023-08-30T06:11:12;20485.69;;;15.83
74043;BMP280;62384;53.600;10.040;2023-08-30T06:13:37;25209.09;;;15.95
74043;BMP280;62384;53.600;10.040;2023-08-30T06:16:03;24532.75;;;15.90
74043;BMP280;62384;53.600;10.040;2023-08-30T06:18:30;27233.66;;;15.91
74043;BMP280;62384;53.600;10.040;2023-08-30T06:20:55;24871.94;;;15.96
74043;BMP280;62384;53.600;10.040;2023-08-30T06:23:20;28251.03;;;16.03
74043;BMP280;62384;53.600;10.040;2023-08-30T06:25:53;31634.81;;;16.09
74043;BMP280;62384;53.600;10.040;2023-08-30T06:28:18;33328.66;;;16.13
74043;BMP280;62384;53.600;10.040;2023-08-30T06:30:44;34010.34;;;16.23
74043;BMP280;62384;53.600;10.040;2023-08-30T06:33:09;33333.63;;;16.25
74043;BMP280;62384;53.600;10.040;2023-08-30T06:35:36;40127.66;;;16.48
74043;BMP280;62384;53.600;10.040;2023-08-30T06:38:04;39787.78;;;16.48
74043;BMP280;62384;53.600;10.040;2023-08-30T06:40:29;41146.09;;;16.47
74043;BMP280;62384;53.600;10.040;2023-08-30T06:43:00;49578.03;;;16.59
74043;BMP280;62384;53.600;10.040;2023-08-30T06:45:25;53647.25;;;16.74
74043;BMP280;62384;53.600;10.040;2023-08-30T06:47:50;53638.88;;;16.73
74043;BMP280;62384;53.600;10.040;2023-08-30T06:50:17;56827.19;;;16.89
74043;BMP280;62384;53.600;10.040;2023-08-30T06:52:43;57936.78;;;16.87
74043;BMP280;62384;53.600;10.040;2023-08-30T06:55:08;62143.72;;;17.06
74043;BMP280;62384;53.600;10.040;2023-08-30T06:57:34;61676.63;;;16.98
74043;BMP280;62384;53.600;10.040;2023-08-30T06:59:59;62252.06;;;17.05
74043;BMP280;62384;53.600;10.040;2023-08-30T07:02:32;64347.59;;;17.21
74043;BMP280;62384;53.600;10.040;2023-08-30T07:04:57;64943.88;;;17.22
74043;BMP280;62384;53.600;10.040;2023-08-30T07:07:22;64971.63;;;17.23
74043;BMP280;62384;53.600;10.040;2023-08-30T07:09:48;64161.13;;;17.25
74043;BMP280;62384;53.600;10.040;2023-08-30T07:12:16;64412.38;;;17.21
74043;BMP280;62384;53.600;10.040;2023-08-30T07:14:41;65235.88;;;17.28
74043;BMP280;62384;53.600;10.040;2023-08-30T07:17:07;65605.81;;;17.28
74043;BMP280;62384;53.600;10.040;2023-08-30T07:19:32;67025.09;;;17.37
74043;BMP280;62384;53.600;10.040;2023-08-30T07:21:57;67571.75;;;17.58
74043;BMP280;62384;53.600;10.040;2023-08-30T07:24:22;68692.56;;;17.70
74043;BMP280;62384;53.600;10.040;2023-08-30T07:26:48;68853.19;;;17.69
74043;BMP280;62384;53.600;10.040;2023-08-30T07:29:13;69209.91;;;17.69
74043;BMP280;62384;53.600;10.040;2023-08-30T07:31:39;68977.91;;;17.68
74043;BMP280;62384;53.600;10.040;2023-08-30T07:34:06;69425.94;;;17.78
74043;BMP280;62384;53.600;10.040;2023-08-30T07:36:32;69395.63;;;17.82
74043;BMP280;62384;53.600;10.040;2023-08-30T07:38:58;68898.91;;;17.77
74043;BMP280;62384;53.600;10.040;2023-08-30T07:41:23;70409.19;;;17.83
74043;BMP280;62384;53.600;10.040;2023-08-30T07:43:48;71059.19;;;17.82
74043;BMP280;62384;53.600;10.040;2023-08-30T07:46:14;71224.66;;;17.86
74043;BMP280;62384;53.600;10.040;2023-08-30T07:48:39;70978.53;;;17.82
74043;BMP280;62384;53.600;10.040;2023-08-30T07:51:09;71859.66;;;17.97
74043;BMP280;62384;53.600;10.040;2023-08-30T07:53:35;71641.16;;;18.04
74043;BMP280;62384;53.600;10.040;2023-08-30T07:56:00;72059.56;;;18.18
74043;BMP280;62384;53.600;10.040;2023-08-30T07:58:25;72424.94;;;18.30
74043;BMP280;62384;53.600;10.040;2023-08-30T08:00:52;72375.97;;;18.25
74043;BMP280;62384;53.600;10.040;2023-08-30T08:03:17;72519.69;;;18.28
74043;BMP280;62384;53.600;10.040;2023-08-30T08:05:43;72669.34;;;18.45
74043;BMP280;62384;53.600;10.040;2023-08-30T08:08:08;72566.47;;;18.42
74043;BMP280;62384;53.600;10.040;2023-08-30T08:10:36;72972.00;;;18.51
74043;BMP280;62384;53.600;10.040;2023-08-30T08:13:01;73148.16;;;18.54
74043;BMP280;62384;53.600;10.040;2023-08-30T08:15:29;72933.75;;;18.55
74043;BMP280;62384;53.600;10.040;2023-08-30T08:17:55;73071.72;;;18.73
74043;BMP280;62384;53.600;10.040;2023-08-30T08:20:21;73267.41;;;18.85
74043;BMP280;62384;53.600;10.040;2023-08-30T08:22:46;73348.03;;;18.57
74043;BMP280;62384;53.600;10.040;2023-08-30T08:25:11;73179.88;;;18.49
74043;BMP280;62384;53.600;10.040;2023-08-30T08:27:37;73101.34;;;18.68
74043;BMP280;62384;53.600;10.040;2023-08-30T08:30:03;73650.56;;;18.78
74043;BMP280;62384;53.600;10.040;2023-08-30T08:32:30;74337.88;;;19.03
74043;BMP280;62384;53.600;10.040;2023-08-30T08:34:57;74248.47;;;19.10
74043;BMP280;62384;53.600;10.040;2023-08-30T08:37:23;74479.44;;;19.14
74043;BMP280;62384;53.600;10.040;2023-08-30T08:39:48;74813.97;;;19.33
74043;BMP280;62384;53.600;10.040;2023-08-30T08:42:20;74653.66;;;19.13
74043;BMP280;62384;53.600;10.040;2023-08-30T08:44:46;74632.66;;;19.13
74043;BMP280;62384;53.600;10.040;2023-08-30T08:47:15;74877.84;;;19.23
74043;BMP280;62384;53.600;10.040;2023-08-30T08:49:42;75180.22;;;19.28
74043;BMP280;62384;53.600;10.040;2023-08-30T08:52:07;75269.19;;;19.25
74043;BMP280;62384;53.600;10.040;2023-08-30T08:54:33;74988.06;;;19.10
74043;BMP280;62384;53.600;10.040;2023-08-30T08:56:59;75003.56;;;19.22
74043;BMP280;62384;53.600;10.040;2023-08-30T08:59:29;75281.47;;;19.07
74043;BMP280;62384;53.600;10.040;2023-08-30T09:01:55;75114.31;;;18.95
74043;BMP280;62384;53.600;10.040;2023-08-30T09:04:20;75024.00;;;19.04
74043;BMP280;62384;53.600;10.040;2023-08-30T09:06:51;75582.34;;;19.16
74043;BMP280;62384;53.600;10.040;2023-08-30T09:09:16;75350.22;;;19.28
74043;BMP280;62384;53.600;10.040;2023-08-30T09:12:02;75633.94;;;19.23
74043;BMP280;62384;53.600;10.040;2023-08-30T09:14:30;76007.63;;;19.05
74043;BMP280;62384;53.600;10.040;2023-08-30T09:17:05;76178.19;;;19.06
74043;BMP280;62384;53.600;10.040;2023-08-30T09:19:31;76042.25;;;19.17
74043;BMP280;62384;53.600;10.040;2023-08-30T09:21:58;75905.94;;;19.23
74043;BMP280;62384;53.600;10.040;2023-08-30T09:24:24;75534.69;;;19.12
74043;BMP280;62384;53.600;10.040;2023-08-30T09:26:51;75728.28;;;19.33
74043;BMP280;62384;53.600;10.040;2023-08-30T09:29:20;76043.84;;;19.49
74043;BMP280;62384;53.600;10.040;2023-08-30T09:31:51;76187.25;;;19.76
74043;BMP280;62384;53.600;10.040;2023-08-30T09:34:16;76312.16;;;19.57
74043;BMP280;62384;53.600;10.040;2023-08-30T09:36:42;75960.91;;;19.76
74043;BMP280;62384;53.600;10.040;2023-08-30T09:39:12;75883.69;;;19.65
74043;BMP280;62384;53.600;10.040;2023-08-30T09:41:41;75923.53;;;19.74
74043;BMP280;62384;53.600;10.040;2023-08-30T09:44:09;76196.50;;;19.77
74043;BMP280;62384;53.600;10.040;2023-08-30T09:46:52;76349.25;;;19.54
74043;BMP280;62384;53.600;10.040;2023-08-30T09:49:26;76261.16;;;19.53
74043;BMP280;62384;53.600;10.040;2023-08-30T09:51:53;76189.59;;;19.37
74043;BMP280;62384;53.600;10.040;2023-08-30T09:54:22;76507.31;;;19.32
74043;BMP280;62384;53.600;10.040;2023-08-30T09:56:48;76607.06;;;19.29
74043;BMP280;62384;53.600;10.040;2023-08-30T09:59:17;76761.78;;;19.25
74043;BMP280;62384;53.600;10.040;2023-08-30T10:01:43;76897.13;;;19.14
74043;BMP280;62384;53.600;10.040;2023-08-30T10:04:10;76805.22;;;19.37
74043;BMP280;62384;53.600;10.040;2023-08-30T10:06:38;76835.47;;;19.38
74043;BMP280;62384;53.600;10.040;2023-08-30T10:09:05;76837.78;;;19.40
74043;BMP280;62384;53.600;10.040;2023-08-30T10:11:37;76832.28;;;19.47
74043;BMP280;62384;53.600;10.040;2023-08-30T10:14:03;76958.06;;;19.29
74043;BMP280;62384;53.600;10.040;2023-08-30T10:16:44;77115.16;;;19.60
74043;BMP280;62384;53.600;10.040;2023-08-30T10:19:30;77228.00;;;19.84
74043;BMP280;62384;53.600;10.040;2023-08-30T10:22:03;77450.56;;;19.89
74043;BMP280;62384;53.600;10.040;2023-08-30T10:24:32;77515.19;;;19.70
74043;BMP280;62384;53.600;10.040;2023-08-30T10:27:10;77495.91;;;19.58
74043;BMP280;62384;53.600;10.040;2023-08-30T10:29:37;77520.31;;;19.44
74043;BMP280;62384;53.600;10.040;2023-08-30T10:32:04;77528.75;;;19.49
74043;BMP280;62384;53.600;10.040;2023-08-30T10:34:36;77550.72;;;19.61
74043;BMP280;62384;53.600;10.040;2023-08-30T10:37:06;77555.00;;;19.46
74043;BMP280;62384;53.600;10.040;2023-08-30T10:39:37;77547.22;;;19.65
74043;BMP280;62384;53.600;10.040;2023-08-30T10:42:10;77528.81;;;19.79
74043;BMP280;62384;53.600;10.040;2023-08-30T10:44:56;77595.50;;;20.05
74043;BMP280;62384;53.600;10.040;2023-08-30T10:47:23;77655.47;;;20.33
74043;BMP280;62384;53.600;10.040;2023-08-30T10:50:00;77855.50;;;21.04
74043;BMP280;62384;53.600;10.040;2023-08-30T10:52:27;77929.84;;;21.42
74043;BMP280;62384;53.600;10.040;2023-08-30T10:54:53;77955.41;;;21.36
74043;BMP280;62384;53.600;10.040;2023-08-30T10:57:20;78050.16;;;21.85
74043;BMP280;62384;53.600;10.040;2023-08-30T11:00:04;78093.06;;;22.16
74043;BMP280;62384;53.600;10.040;2023-08-30T11:02:31;78160.81;;;22.44
74043;BMP280;62384;53.600;10.040;2023-08-30T11:04:57;78166.00;;;22.48
74043;BMP280;62384;53.600;10.040;2023-08-30T11:07:26;78177.47;;;22.93
74043;BMP280;62384;53.600;10.040;2023-08-30T11:09:52;78027.94;;;22.16
74043;BMP280;62384;53.600;10.040;2023-08-30T11:12:18;78150.91;;;22.42
74043;BMP280;62384;53.600;10.040;2023-08-30T11:14:43;78078.44;;;22.31
74043;BMP280;62384;53.600;10.040;2023-08-30T11:17:11;78044.34;;;22.32
74043;BMP280;62384;53.600;10.040;2023-08-30T11:19:40;78047.09;;;22.18
74043;BMP280;62384;53.600;10.040;2023-08-30T11:22:05;77912.19;;;21.53
74043;BMP280;62384;53.600;10.040;2023-08-30T11:24:33;77948.19;;;21.49
74043;BMP280;62384;53.600;10.040;2023-08-30T11:26:58;77830.09;;;21.12
74043;BMP280;62384;53.600;10.040;2023-08-30T11:29:26;77829.75;;;21.00
74043;BMP280;62384;53.600;10.040;2023-08-30T11:31:52;77801.22;;;20.80
74043;BMP280;62384;53.600;10.040;2023-08-30T11:34:20;77836.53;;;20.97
74043;BMP280;62384;53.600;10.040;2023-08-30T11:36:50;77884.94;;;20.99
74043;BMP280;62384;53.600;10.040;2023-08-30T11:39:16;77904.44;;;21.58
74043;BMP280;62384;53.600;10.040;2023-08-30T11:41:42;77930.56;;;21.52
74043;BMP280;62384;53.600;10.040;2023-08-30T11:44:07;77937.19;;;21.46
74043;BMP280;62384;53.600;10.040;2023-08-30T11:46:33;77956.44;;;21.72
74043;BMP280;62384;53.600;10.040;2023-08-30T11:48:58;77916.25;;;21.49
74043;BMP280;62384;53.600;10.040;2023-08-30T11:51:27;77916.88;;;21.43
74043;BMP280;62384;53.600;10.040;2023-08-30T11:53:52;77930.00;;;21.52
74043;BMP280;62384;53.600;10.040;2023-08-30T11:56:19;77876.09;;;21.26
74043;BMP280;62384;53.600;10.040;2023-08-30T11:58:44;77891.41;;;21.28
74043;BMP280;62384;53.600;10.040;2023-08-30T12:01:10;77933.91;;;21.39
74043;BMP280;62384;53.600;10.040;2023-08-30T12:03:36;77938.16;;;21.45
74043;BMP280;62384;53.600;10.040;2023-08-30T12:06:10;77932.97;;;21.33
74043;BMP280;62384;53.600;10.040;2023-08-30T12:08:37;77883.28;;;21.28
74043;BMP280;62384;53.600;10.040;2023-08-30T12:11:02;77931.78;;;21.39
74043;BMP280;62384;53.600;10.040;2023-08-30T12:13:37;77916.09;;;21.47
74043;BMP280;62384;53.600;10.040;2023-08-30T12:16:02;77914.56;;;21.41
74043;BMP280;62384;53.600;10.040;2023-08-30T12:18:37;77929.66;;;21.47
74043;BMP280;62384;53.600;10.040;2023-08-30T12:21:07;77949.16;;;21.54
74043;BMP280;62384;53.600;10.040;2023-08-30T12:23:32;77961.31;;;21.65
74043;BMP280;62384;53.600;10.040;2023-08-30T12:26:11;77957.66;;;21.59
74043;BMP280;62384;53.600;10.040;2023-08-30T12:28:40;77958.78;;;21.67
74043;BMP280;62384;53.600;10.040;2023-08-30T12:31:06;77931.16;;;21.53
74043;BMP280;62384;53.600;10.040;2023-08-30T12:33:33;77950.09;;;21.60
74043;BMP280;62384;53.600;10.040;2023-08-30T12:35:59;77956.03;;;21.81
74043;BMP280;62384;53.600;10.040;2023-08-30T12:38:49;77958.78;;;21.74
74043;BMP280;62384;53.600;10.040;2023-08-30T12:41:16;77941.06;;;21.47
74043;BMP280;62384;53.600;10.040;2023-08-30T12:43:41;77967.88;;;21.73
74043;BMP280;62384;53.600;10.040;2023-08-30T12:46:08;77967.06;;;21.77
74043;BMP280;62384;53.600;10.040;2023-08-30T12:48:33;77972.66;;;21.87
74043;BMP280;62384;53.600;10.040;2023-08-30T12:51:00;77981.72;;;21.92
74043;BMP280;62384;53.600;10.040;2023-08-30T12:53:30;77966.69;;;21.79
74043;BMP280;62384;53.600;10.040;2023-08-30T12:56:02;77963.38;;;21.78
74043;BMP280;62384;53.600;10.040;2023-08-30T12:58:27;77964.84;;;21.99
74043;BMP280;62384;53.600;10.040;2023-08-30T13:00:52;77974.75;;;21.93
74043;BMP280;62384;53.600;10.040;2023-08-30T13:03:17;78003.78;;;22.04
74043;BMP280;62384;53.600;10.040;2023-08-30T13:05:42;77973.47;;;21.75
74043;BMP280;62384;53.600;10.040;2023-08-30T13:08:08;77926.66;;;21.65
74043;BMP280;62384;53.600;10.040;2023-08-30T13:10:33;77948.69;;;21.77
74043;BMP280;62384;53.600;10.040;2023-08-30T13:13:00;77945.50;;;21.94
74043;BMP280;62384;53.600;10.040;2023-08-30T13:15:25;77920.06;;;21.64
74043;BMP280;62384;53.600;10.040;2023-08-30T13:17:50;77886.13;;;21.37
74043;BMP280;62384;53.600;10.040;2023-08-30T13:20:17;77894.41;;;21.47
74043;BMP280;62384;53.600;10.040;2023-08-30T13:22:43;77884.38;;;21.36
74043;BMP280;62384;53.600;10.040;2023-08-30T13:25:08;77861.78;;;21.23
74043;BMP280;62384;53.600;10.040;2023-08-30T13:27:34;77857.72;;;21.27
74043;BMP280;62384;53.600;10.040;2023-08-30T13:29:59;77929.00;;;21.60
74043;BMP280;62384;53.600;10.040;2023-08-30T13:32:28;77901.38;;;21.46
74043;BMP280;62384;53.600;10.040;2023-08-30T13:34:53;77902.56;;;21.40
74043;BMP280;62384;53.600;10.040;2023-08-30T13:37:18;77934.56;;;21.70
74043;BMP280;62384;53.600;10.040;2023-08-30T13:39:44;77907.00;;;21.41
74043;BMP280;62384;53.600;10.040;2023-08-30T13:42:09;77873.16;;;21.38
74043;BMP280;62384;53.600;10.040;2023-08-30T13:44:35;77887.50;;;21.34
74043;BMP280;62384;53.600;10.040;2023-08-30T13:47:04;77902.78;;;21.35
74043;BMP280;62384;53.600;10.040;2023-08-30T13:49:30;77901.97;;;21.39
74043;BMP280;62384;53.600;10.040;2023-08-30T13:51:58;77853.69;;;21.16
74043;BMP280;62384;53.600;10.040;2023-08-30T13:54:29;77855.75;;;21.30
74043;BMP280;62384;53.600;10.040;2023-08-30T13:56:58;77847.13;;;21.15
74043;BMP280;62384;53.600;10.040;2023-08-30T13:59:24;77893.78;;;21.16
74043;BMP280;62384;53.600;10.040;2023-08-30T14:01:49;77918.25;;;21.32
74043;BMP280;62384;53.600;10.040;2023-08-30T14:04:14;77921.81;;;21.66